Memorial Village's Hourly Summary for Friday, July 6, 2018
Hour Temp
(f)
RH
(%)
Solar Rad.
(MJ/m2)
Rainfall
(in)
Wind
(mph)
7/6/2018 12:00 AM 76 85 0 0 0.06
7/6/2018 1:00 AM 75 88 0 0 0.07
7/6/2018 2:00 AM 75 90 0 0 0
7/6/2018 3:00 AM 74 92 0 0 0
7/6/2018 4:00 AM 73 95 0 0 0
7/6/2018 5:00 AM 73 96 0 0 0
7/6/2018 6:00 AM 73 96 0.02 0 0
7/6/2018 7:00 AM 74 90 0.14 0 0
7/6/2018 8:00 AM 79 76 0.43 0 0.01
7/6/2018 9:00 AM 83 64 0.92 0 0.13
7/6/2018 10:00 AM 87 59 2.07 0 0.41
7/6/2018 11:00 AM 89 53 2.95 0 0.54
7/6/2018 12:00 PM 91 48 3.25 0 0.92
7/6/2018 1:00 PM 92 45 3.25 0 0.83
7/6/2018 2:00 PM 92 44 2.87 0 0.68
7/6/2018 3:00 PM 93 41 2.69 0 0.75
7/6/2018 4:00 PM 92 42 1.97 0 0.43
7/6/2018 5:00 PM 91 46 1.09 0 0.45
7/6/2018 6:00 PM 85 52 0.8 0 1.43
7/6/2018 7:00 PM 83 70 0.12 0 0.14
7/6/2018 8:00 PM 81 79 0 0 0.02
7/6/2018 9:00 PM 80 83 0 0 0
7/6/2018 10:00 PM 79 86 0 0 0
7/6/2018 11:00 PM 78 75 0 0.07 0.63
Data Summary 82 70 22.57 0.07 0.31